Portada
METAR-TAF:

METAR-TAF

Aeropuertos :

Funchal, Madeira, Portugal

Aeropuerto de Madeira

latitud: 32-41-52N, longitud: 016-46-28W, altitud: 59 m

Observación

El informe se hizo hace 38 minutos, a las 01:00 UTC
Viento 7 kt del norte, variando entre oeste y este-noreste
Temperatura 22°C
Humedad 65%
Presión 1020 hPa
Visibilidad 10 km o más
Escasas nubes a una altura de 1600 ft

METAR: LPMA 230100Z 01007KT 280V060 9999 FEW016 22/15 Q1020

Hora: 02:38 (01:38 UTC)

Pronóstico

El informe se hizo hace 2 horas y 38 minutos, a las 23:00 UTC
Pronóstico válido del 23 a las 00 UTC al 23 a las 24 UTC
Viento 12 kt del norte
Visibilidad 10 km o más
Nubes dispersas a una altura de 1500 ft
Probabilidad 30% :
Temporalmente
del 23 a las 00 UTC al 23 a las 12 UTC
Cielo nuboso a una altura de 1500 ft

TAF: LPMA 222300Z 2300/2324 01012KT 9999 SCT015 PROB30 TEMPO 2300/2312 BKN015

Observaciones y pronósticos meteorológicos de más de 4000 aeropuertos (mensajes METAR y TAF).

Los puntos amarillos y rojos representan las estaciones disponibles.

Ponga el ratón en el punto deseado para ver el nombre de la estación.

Haga clic para ver las observaciones y los pronósticos meteorológicos.

Para cambiar el mapa : haga clic en los botones verdes con una cruz de color negro para hacer un zoom, en el botón verde con un guión para alejar o en las flechas verdes para mapas adyacentes.


METAR-TAF: